Ir al Módulo  



logo_vatsim
logo_vatsur

 


Corredor NorOccidental
Julio 23 de 2015

Los esperamos todos los Domingos con Full control entre Colombia, Venezuela y Ecuador!!




¿Quiéres ser ATC?
Junio 18 de 2015






Nuevo Escenario de Bogotá Recomendado
Septiembre 26 de 2014

Los invitamos a conocer el escenario desarrollado por LR30 Scenery Design de SKBO. Vatsim Colombia lo reconoce como escenario oficial de la red.

Links:

FS9: http://www.mediafire.com/download/gfuqcb7qb8r9q9n/BOG_2014_FS9.rar
FSX: http://www.mediafire.com/download/b8831kleqc5nc13/LR30_SKBO_V2.rar




 

 
Untitled Document
SKAR 281900Z 23004KT 9999 BKN025 SCT120 28/18 A2994
SKBG 281900Z 34008KT 9999 BKN015 26/20 A2990
SKBO 281900Z 12010KT 9999 SCT020 18/09 A3026
SKBQ 281900Z 07010KT CAVOK 33/25 A2975
SKCG 281900Z 36018KT 9999 FEW017TCU SCT200 31/26 A2972 RMK TCU/E
SKCL 281900Z 34004KT 9999 SCT040 SCT300 31/17 A2984
SKPE 281900Z 34003KT 9999 VCSH FEW020TCU SCT080 27/18 A2995 RMK/TCU VCSH SE S
SKRG 281900Z 11012KT 9999 FEW025 SCT300 23/11 A3020